Time;durP1;ratioP1;P1;durP2;ratioP2;P2;SDS_P1;SDS_P2;PMS_P1;PMS_P2;Temp;Humidity;BMP_temperature;BMP_pressure;BME280_temperature;BME280_humidity;BME280_pressure;Samples;Min_cycle;Max_cycle;Signal;HPM_P1;HPM_P2
2023/04/03 00:00:54;;;;;;;0.20;0.20;;;;;;;13.34;57.91;99132.63;5078108;28;20034;-68
2023/04/03 00:03:20;;;;;;;0.20;0.20;;;;;;;13.43;58.04;99138.59;5094344;28;20032;-69
2023/04/03 00:05:46;;;;;;;0.20;0.20;;;;;;;13.41;58.09;99127.00;5094500;28;20031;-67
2023/04/03 00:08:14;;;;;;;0.20;0.20;;;;;;;13.48;57.46;99132.56;5069021;28;20055;-69
2023/04/03 00:10:42;;;;;;;0.20;0.20;;;;;;;13.40;58.56;99128.22;5054015;28;20033;-68
2023/04/03 00:13:08;;;;;;;0.20;0.20;;;;;;;13.42;58.11;99131.38;5054207;28;20035;-66
2023/04/03 00:15:34;;;;;;;0.20;0.20;;;;;;;13.49;57.83;99128.56;5054399;28;20371;-66
2023/04/03 00:18:03;;;;;;;0.20;0.20;;;;;;;13.44;57.74;99120.59;5053742;28;20036;-66
2023/04/03 00:20:32;;;;;;;0.20;0.20;;;;;;;13.45;57.56;99111.03;5053776;28;20024;-68
2023/04/03 00:22:57;;;;;;;0.20;0.20;;;;;;;13.44;58.15;99103.06;5055055;28;20029;-69
2023/04/03 00:25:26;;;;;;;0.20;0.20;;;;;;;13.45;58.14;99104.63;5053710;28;20036;-67
2023/04/03 00:27:51;;;;;;;0.20;0.20;;;;;;;13.43;58.56;99096.69;5054229;28;20134;-68
2023/04/03 00:30:19;;;;;;;0.20;0.20;;;;;;;13.45;59.36;99093.47;5053844;28;20387;-69
2023/04/03 00:32:49;;;;;;;0.20;0.20;;;;;;;13.41;57.50;99085.09;5053479;28;20467;-66
2023/04/03 00:35:17;;;;;;;0.20;0.20;;;;;;;13.42;57.59;99083.88;5053499;28;20029;-65
2023/04/03 00:37:46;;;;;;;0.20;0.20;;;;;;;13.47;57.55;99085.44;5053358;28;20024;-67
2023/04/03 00:40:15;;;;;;;0.20;0.20;;;;;;;13.29;57.54;99069.59;5053454;28;20060;-67
2023/04/03 00:42:43;;;;;;;0.20;0.20;;;;;;;13.39;57.60;99072.75;5054911;28;20028;-68
2023/04/03 00:45:17;;;;;;;0.20;0.20;;;;;;;13.43;57.78;99074.31;5053296;28;20021;-67
2023/04/03 00:47:43;;;;;;;0.20;0.20;;;;;;;13.51;57.51;99070.25;5053246;28;20041;-68
2023/04/03 00:50:12;;;;;;;0.20;0.20;;;;;;;13.54;57.36;99066.66;5053859;28;20060;-69
2023/04/03 00:52:40;;;;;;;0.20;0.20;;;;;;;13.43;57.63;99074.31;5053466;28;20048;-66
2023/04/03 00:55:10;;;;;;;0.20;0.20;;;;;;;13.20;57.94;99055.25;5053924;28;20029;-69
2023/04/03 00:57:38;;;;;;;0.20;0.20;;;;;;;13.22;58.01;99068.88;5054036;28;20039;-69
2023/04/03 01:00:12;;;;;;;0.20;0.20;;;;;;;13.33;58.12;99069.59;5053611;28;20531;-69
2023/04/03 01:02:40;;;;;;;0.20;0.20;;;;;;;13.26;57.41;99075.19;5053452;28;20021;-67
2023/04/03 01:05:07;;;;;;;0.20;0.20;;;;;;;13.35;57.07;99075.56;5054296;28;20053;-66
2023/04/03 01:07:36;;;;;;;0.20;0.20;;;;;;;13.28;57.62;99072.81;5055348;28;20106;-70
2023/04/03 01:10:07;;;;;;;0.20;0.20;;;;;;;13.29;57.74;99079.97;5053671;28;20036;-66
2023/04/03 01:12:44;;;;;;;0.20;0.20;;;;;;;13.24;58.27;99072.03;5053753;28;20460;-70
2023/04/03 01:15:15;;;;;;;0.20;0.20;;;;;;;13.18;58.39;99070.84;5053705;28;20434;-66
2023/04/03 01:17:50;;;;;;;0.20;0.20;;;;;;;13.18;58.85;99056.88;5053191;28;20025;-68
2023/04/03 01:20:31;;;;;;;0.20;0.20;;;;;;;13.19;58.70;99062.03;5054315;28;20480;-68
2023/04/03 01:23:06;;;;;;;0.20;0.20;;;;;;;13.18;59.21;99046.50;5052685;28;20029;-67
2023/04/03 01:25:36;;;;;;;0.20;0.20;;;;;;;13.26;58.97;99052.84;5053177;28;20025;-68
2023/04/03 01:28:06;;;;;;;0.20;0.20;;;;;;;13.21;59.58;99044.88;5052911;28;20037;-66
2023/04/03 01:30:41;;;;;;;0.20;0.20;;;;;;;13.17;59.39;99044.13;5052568;28;20471;-66
2023/04/03 01:33:08;;;;;;;0.20;0.20;;;;;;;13.23;59.89;99048.09;5052828;28;20029;-69
2023/04/03 01:35:40;;;;;;;0.20;0.20;;;;;;;13.23;59.72;99034.13;5052461;28;20039;-68
2023/04/03 01:38:05;;;;;;;0.20;0.20;;;;;;;13.18;59.37;99023.38;5053399;28;20082;-66
2023/04/03 01:40:34;;;;;;;0.20;0.20;;;;;;;13.18;59.73;99012.97;5053056;28;20123;-69
2023/04/03 01:43:00;;;;;;;0.20;0.20;;;;;;;13.26;59.62;99013.75;5052383;28;20029;-69
2023/04/03 01:45:25;;;;;;;0.20;0.20;;;;;;;13.23;59.22;99025.75;5053040;28;20166;-69
2023/04/03 01:47:51;;;;;;;0.20;0.20;;;;;;;13.20;59.02;99004.19;5035947;28;20532;-68
2023/04/03 01:50:16;;;;;;;0.20;0.20;;;;;;;13.21;58.82;99001.03;5052733;28;20029;-69
2023/04/03 01:52:45;;;;;;;0.20;0.20;;;;;;;13.15;59.16;98985.84;5052389;28;20119;-69
2023/04/03 01:55:10;;;;;;;0.20;0.20;;;;;;;13.13;59.67;98998.66;5053766;28;20025;-69
2023/04/03 01:57:36;;;;;;;0.20;0.20;;;;;;;13.13;59.90;98993.06;5053438;28;20044;-69
2023/04/03 02:00:01;;;;;;;0.20;0.20;;;;;;;13.19;59.73;98986.63;5052372;28;20036;-69
2023/04/03 02:02:27;;;;;;;0.20;0.20;;;;;;;13.18;59.77;98979.47;5052311;28;20064;-66
2023/04/03 02:04:54;;;;;;;0.20;0.20;;;;;;;13.11;60.02;98963.56;5052312;28;20082;-68
2023/04/03 02:07:22;;;;;;;0.20;0.20;;;;;;;13.10;59.63;98973.16;5053043;28;20352;-69
2023/04/03 02:09:50;;;;;;;0.20;0.20;;;;;;;13.10;59.83;98972.31;5051831;28;20053;-66
2023/04/03 02:12:18;;;;;;;0.20;0.20;;;;;;;13.09;59.60;98965.16;5053183;28;20086;-69
2023/04/03 02:14:46;;;;;;;0.20;0.20;;;;;;;13.08;59.72;98967.16;5052456;28;20029;-67
2023/04/03 02:17:15;;;;;;;0.20;0.20;;;;;;;13.03;60.09;98956.41;5052291;28;20379;-66
2023/04/03 02:19:43;;;;;;;0.20;0.20;;;;;;;12.97;60.03;98958.06;5052332;28;20021;-70
2023/04/03 02:22:11;;;;;;;0.20;0.20;;;;;;;12.96;60.18;98945.31;5052018;28;20040;-67
2023/04/03 02:24:38;;;;;;;0.20;0.20;;;;;;;13.00;60.53;98948.09;5053836;28;20141;-67
2023/04/03 02:27:07;;;;;;;0.30;0.30;;;;;;;13.04;59.70;98948.84;5053044;28;20060;-66
2023/04/03 02:29:38;;;;;;;0.20;0.20;;;;;;;12.98;60.70;98944.91;5051956;28;20078;-68
2023/04/03 02:32:08;;;;;;;0.20;0.20;;;;;;;12.91;60.74;98937.38;5052765;28;20119;-66
2023/04/03 02:34:35;;;;;;;0.20;0.20;;;;;;;12.93;60.54;98931.38;5057026;28;20051;-65
2023/04/03 02:37:06;;;;;;;0.20;0.20;;;;;;;12.84;60.91;98927.06;5056164;28;20029;-68
2023/04/03 02:39:35;;;;;;;0.20;0.20;;;;;;;12.93;60.47;98923.78;5055666;28;20036;-68
2023/04/03 02:42:03;;;;;;;0.20;0.20;;;;;;;12.91;61.35;98920.63;5056443;28;20021;-66
2023/04/03 02:44:28;;;;;;;0.20;0.20;;;;;;;12.91;60.90;98915.03;5055554;28;20468;-69
2023/04/03 02:46:59;;;;;;;0.20;0.20;;;;;;;12.87;60.66;98908.66;5055556;28;20079;-67
2023/04/03 02:49:25;;;;;;;0.20;0.20;;;;;;;12.81;61.10;98899.94;5055546;28;20037;-69
2023/04/03 02:51:53;;;;;;;0.20;0.20;;;;;;;12.88;61.08;98909.47;5055736;28;20091;-69
2023/04/03 02:54:18;;;;;;;0.20;0.20;;;;;;;12.85;61.04;98906.31;5055588;28;20043;-65
2023/04/03 02:56:47;;;;;;;0.20;0.20;;;;;;;12.90;60.92;98902.28;5055804;28;20029;-65
2023/04/03 02:59:15;;;;;;;0.20;0.20;;;;;;;12.85;61.07;98888.75;5055930;28;20036;-69
2023/04/03 03:01:43;;;;;;;0.20;0.20;;;;;;;12.92;61.21;98891.50;5056586;28;20040;-67
2023/04/03 03:04:09;;;;;;;0.20;0.20;;;;;;;12.76;61.26;98885.63;5055421;28;20035;-68
2023/04/03 03:06:34;;;;;;;0.20;0.20;;;;;;;12.82;61.08;98878.41;5056563;28;20120;-66
2023/04/03 03:09:00;;;;;;;0.20;0.20;;;;;;;12.82;61.29;98883.97;5057832;28;20053;-69
2023/04/03 03:11:25;;;;;;;0.20;0.20;;;;;;;12.77;61.55;98876.03;5055937;28;20120;-65
2023/04/03 03:13:51;;;;;;;0.20;0.20;;;;;;;12.78;61.46;98867.28;5055039;28;20041;-66
2023/04/03 03:16:17;;;;;;;0.20;0.20;;;;;;;12.76;61.25;98866.88;5055251;28;20076;-66
2023/04/03 03:18:45;;;;;;;0.20;0.20;;;;;;;12.78;61.38;98861.69;5055213;28;20472;-67
2023/04/03 03:21:11;;;;;;;0.20;0.20;;;;;;;12.85;61.32;98860.84;5054886;28;20115;-69
2023/04/03 03:23:41;;;;;;;0.20;0.20;;;;;;;12.78;61.14;98844.94;5055214;28;20111;-65
2023/04/03 03:26:09;;;;;;;0.20;0.20;;;;;;;12.84;61.18;98843.31;5055112;28;20033;-68
2023/04/03 03:28:36;;;;;;;0.20;0.20;;;;;;;12.85;61.02;98853.25;5056587;28;20127;-66
2023/04/03 03:31:02;;;;;;;0.20;0.20;;;;;;;12.81;61.51;98849.69;5054983;28;20025;-67
2023/04/03 03:33:30;;;;;;;0.20;0.20;;;;;;;12.87;61.09;98852.06;5055279;28;20388;-68
2023/04/03 03:35:56;;;;;;;0.20;0.20;;;;;;;12.82;61.25;98844.91;5054587;28;20037;-68
2023/04/03 03:38:22;;;;;;;0.20;0.20;;;;;;;12.82;61.09;98844.91;5054504;28;20025;-67
2023/04/03 03:40:53;;;;;;;0.20;0.20;;;;;;;12.78;60.88;98838.56;5054548;28;20028;-68
2023/04/03 03:43:22;;;;;;;0.20;0.20;;;;;;;12.80;61.24;98841.75;5054899;28;20372;-66
2023/04/03 03:45:52;;;;;;;0.20;0.20;;;;;;;12.81;61.08;98840.53;5054769;28;20048;-65
2023/04/03 03:48:18;;;;;;;0.20;0.20;;;;;;;12.78;60.80;98838.56;5054978;28;20107;-65
2023/04/03 03:50:46;;;;;;;0.20;0.20;;;;;;;12.78;60.59;98819.84;5054055;28;20123;-67
2023/04/03 03:53:14;;;;;;;0.20;0.20;;;;;;;12.86;60.17;98823.34;5054304;28;20036;-66
2023/04/03 03:55:40;;;;;;;0.20;0.20;;;;;;;12.79;60.11;98842.94;5054571;28;20382;-68
2023/04/03 03:58:11;;;;;;;0.20;0.20;;;;;;;12.87;59.80;98829.72;5054502;28;20372;-69
2023/04/03 04:00:36;;;;;;;0.20;0.20;;;;;;;12.85;58.94;98824.56;5054453;28;20446;-69
2023/04/03 04:03:04;;;;;;;0.20;0.20;;;;;;;12.90;59.20;98823.34;5054392;28;20025;-67
2023/04/03 04:05:30;;;;;;;0.20;0.20;;;;;;;12.91;58.86;98831.28;5054024;28;20033;-66
2023/04/03 04:07:55;;;;;;;0.20;0.20;;;;;;;12.88;58.75;98822.94;5059365;28;20066;-68
2023/04/03 04:10:24;;;;;;;0.20;0.20;;;;;;;12.90;58.97;98831.72;5077397;28;20027;-69
2023/04/03 04:12:51;;;;;;;0.20;0.20;;;;;;;12.90;59.39;98817.75;5078187;28;20032;-68
2023/04/03 04:15:17;;;;;;;0.20;0.20;;;;;;;12.88;59.53;98820.13;5094711;28;20362;-66
2023/04/03 04:17:43;;;;;;;0.20;0.20;;;;;;;12.89;59.84;98836.50;5077223;28;20024;-68
2023/04/03 04:20:12;;;;;;;0.20;0.20;;;;;;;12.92;58.81;98835.66;5078306;28;20028;-69
2023/04/03 04:22:43;;;;;;;0.20;0.20;;;;;;;12.93;59.21;98823.28;5078379;28;20088;-69
2023/04/03 04:25:08;;;;;;;0.20;0.20;;;;;;;12.91;59.29;98825.69;5077081;28;20031;-66
2023/04/03 04:27:39;;;;;;;0.20;0.20;;;;;;;12.90;59.37;98842.88;5077596;28;20032;-69
2023/04/03 04:30:09;;;;;;;0.20;0.20;;;;;;;12.97;58.73;98840.81;5076913;28;20024;-66
2023/04/03 04:32:35;;;;;;;0.20;0.20;;;;;;;12.99;58.72;98832.00;5076538;28;20097;-67
2023/04/03 04:35:03;;;;;;;0.20;0.20;;;;;;;13.00;59.19;98834.41;5077111;28;20028;-68
2023/04/03 04:37:32;;;;;;;0.20;0.20;;;;;;;13.01;58.80;98855.53;5076756;28;20036;-66
2023/04/03 04:40:00;;;;;;;0.20;0.20;;;;;;;13.04;58.44;98846.31;5093660;28;20028;-68
2023/04/03 04:42:25;;;;;;;0.20;0.20;;;;;;;12.99;58.40;98838.38;5094175;28;20462;-69
2023/04/03 04:44:51;;;;;;;0.20;0.20;;;;;;;13.08;58.44;98844.28;5076887;28;20086;-67
2023/04/03 04:47:17;;;;;;;0.20;0.20;;;;;;;13.16;57.39;98841.47;5077444;28;20035;-68
2023/04/03 04:49:47;;;;;;;0.20;0.20;;;;;;;13.15;57.44;98834.25;5076899;28;20067;-67
2023/04/03 04:52:15;;;;;;;0.20;0.20;;;;;;;13.17;57.57;98826.28;5076521;28;20031;-68
2023/04/03 04:54:40;;;;;;;0.20;0.20;;;;;;;13.14;57.91;98832.69;5076287;28;20511;-67
2023/04/03 04:57:06;;;;;;;0.20;0.20;;;;;;;13.17;57.81;98837.47;5076712;28;20021;-65
2023/04/03 04:59:36;;;;;;;0.20;0.20;;;;;;;13.16;57.98;98836.66;5094884;28;20028;-65
2023/04/03 05:02:06;;;;;;;0.20;0.20;;;;;;;13.13;58.15;98834.69;5076301;28;20024;-68
2023/04/03 05:04:33;;;;;;;0.20;0.20;;;;;;;13.10;58.97;98836.31;5076257;28;20031;-67
2023/04/03 05:07:03;;;;;;;0.20;0.20;;;;;;;13.04;59.22;98835.16;5094732;28;20066;-66
2023/04/03 05:09:28;;;;;;;0.20;0.20;;;;;;;13.06;58.31;98835.53;5057261;28;20140;-68
2023/04/03 05:11:56;;;;;;;0.20;0.20;;;;;;;13.07;58.24;98828.75;5053393;28;20120;-66
2023/04/03 05:14:22;;;;;;;0.20;0.20;;;;;;;13.10;58.64;98833.53;5053032;28;20490;-65
2023/04/03 05:16:53;;;;;;;0.20;0.20;;;;;;;13.15;58.44;98825.88;5052646;28;20021;-69
2023/04/03 05:19:20;;;;;;;0.20;0.20;;;;;;;13.16;57.83;98824.69;5052987;28;20036;-67
2023/04/03 05:21:48;;;;;;;0.20;0.20;;;;;;;13.16;58.47;98833.88;5052703;28;20116;-66
2023/04/03 05:24:15;;;;;;;0.20;0.20;;;;;;;13.17;57.94;98834.66;5052931;28;20032;-68
2023/04/03 05:26:46;;;;;;;0.20;0.20;;;;;;;13.19;57.76;98821.06;5053238;28;20059;-66
2023/04/03 05:29:14;;;;;;;0.20;0.20;;;;;;;13.05;57.68;98797.66;5052907;28;20501;-69
2023/04/03 05:31:42;;;;;;;0.20;0.20;;;;;;;13.26;57.58;98816.25;5052798;28;20029;-69
2023/04/03 05:34:10;;;;;;;0.20;0.20;;;;;;;13.31;57.24;98826.16;5052798;28;20029;-68
2023/04/03 05:36:39;;;;;;;0.20;0.20;;;;;;;13.27;57.38;98803.88;5052994;28;20399;-67
2023/04/03 05:39:08;;;;;;;0.20;0.20;;;;;;;13.42;56.71;98818.47;5052490;28;20029;-66
2023/04/03 05:41:34;;;;;;;0.20;0.20;;;;;;;13.42;57.05;98815.66;5052125;28;20112;-66
2023/04/03 05:44:00;;;;;;;0.20;0.20;;;;;;;13.45;56.93;98817.66;5052897;28;20029;-67
2023/04/03 05:46:26;;;;;;;0.20;0.20;;;;;;;13.45;57.08;98819.66;5052445;28;20386;-66
2023/04/03 05:48:54;;;;;;;0.20;0.20;;;;;;;13.40;56.62;98828.47;5053720;28;20029;-67
2023/04/03 05:51:28;;;;;;;0.20;0.20;;;;;;;13.44;56.56;98816.06;5052530;28;20059;-68
2023/04/03 05:54:01;;;;;;;;;;;;;;;13.40;56.45;98829.28;5052904;28;20029;-66
2023/04/03 05:56:28;;;;;;;0.20;0.20;;;;;;;13.47;56.31;98823.59;5069058;28;19923;-67
2023/04/03 05:58:54;;;;;;;0.20;0.20;;;;;;;13.53;56.15;98821.97;5053011;28;20025;-68
2023/04/03 06:01:24;;;;;;;0.20;0.20;;;;;;;13.52;55.33;98825.16;5052492;28;20124;-69
2023/04/03 06:03:53;;;;;;;0.20;0.20;;;;;;;13.57;55.02;98833.88;5052561;28;20083;-69
2023/04/03 06:06:19;;;;;;;0.20;0.20;;;;;;;13.63;55.01;98829.44;5054051;28;20071;-69
2023/04/03 06:08:46;;;;;;;0.20;0.20;;;;;;;13.57;55.27;98827.50;5065329;28;20044;-68
2023/04/03 06:11:14;;;;;;;0.20;0.20;;;;;;;13.65;55.01;98831.00;5076332;28;20024;-66
2023/04/03 06:13:42;;;;;;;0.20;0.20;;;;;;;13.65;55.25;98828.22;5076677;28;20079;-68
2023/04/03 06:16:15;;;;;;;0.20;0.20;;;;;;;13.69;55.06;98831.75;5076230;28;20056;-66
2023/04/03 06:18:44;;;;;;;0.20;0.20;;;;;;;13.76;54.96;98834.47;5077502;28;20036;-67
2023/04/03 06:21:10;;;;;;;0.20;0.20;;;;;;;13.72;54.59;98828.13;5077095;28;20102;-67
2023/04/03 06:23:41;;;;;;;0.20;0.20;;;;;;;13.84;54.09;98831.16;5076419;28;20025;-66
2023/04/03 06:26:07;;;;;;;0.20;0.20;;;;;;;13.93;53.18;98833.47;5076135;28;20029;-68
2023/04/03 06:28:35;;;;;;;0.20;0.20;;;;;;;13.83;53.65;98829.59;5076412;28;20467;-68
2023/04/03 06:31:04;;;;;;;0.20;0.20;;;;;;;13.79;53.12;98823.25;5076897;28;20087;-67
2023/04/03 06:33:33;;;;;;;0.20;0.20;;;;;;;13.71;53.76;98826.56;5076022;28;20032;-68
2023/04/03 06:36:06;;;;;;;0.20;0.20;;;;;;;13.76;53.10;98812.13;5076095;28;20025;-67
2023/04/03 06:38:34;;;;;;;0.20;0.20;;;;;;;13.79;52.87;98811.25;5075824;28;20089;-67
2023/04/03 06:41:05;;;;;;;0.20;0.20;;;;;;;13.81;52.82;98808.88;5077114;28;20028;-69
2023/04/03 06:43:33;;;;;;;0.20;0.20;;;;;;;13.81;53.05;98804.06;5075795;28;20029;-68
2023/04/03 06:46:01;;;;;;;0.20;0.20;;;;;;;13.81;53.70;98806.06;5076301;28;20025;-69
2023/04/03 06:48:29;;;;;;;0.20;0.20;;;;;;;13.83;53.38;98795.25;5075994;28;20043;-68
2023/04/03 06:50:58;;;;;;;0.20;0.20;;;;;;;13.85;53.25;98804.03;5077059;28;20029;-70
2023/04/03 06:53:27;;;;;;;0.20;0.20;;;;;;;13.80;53.07;98793.31;5075681;28;20039;-68
2023/04/03 06:55:53;;;;;;;0.20;0.20;;;;;;;13.86;53.56;98783.25;5076292;28;20032;-69
2023/04/03 06:58:21;;;;;;;0.20;0.20;;;;;;;13.89;52.92;98793.56;5075558;28;20375;-68
2023/04/03 07:00:47;;;;;;;0.20;0.20;;;;;;;13.88;53.09;98769.63;5076045;28;20037;-68
2023/04/03 07:03:13;;;;;;;0.20;0.20;;;;;;;13.85;53.54;98781.66;5075115;28;20499;-65
2023/04/03 07:05:44;;;;;;;0.20;0.20;;;;;;;13.95;53.30;98785.50;5075332;28;20032;-65
2023/04/03 07:08:15;;;;;;;0.20;0.20;;;;;;;13.92;53.12;98769.59;5070665;28;20484;-69
2023/04/03 07:10:44;;;;;;;0.20;0.20;;;;;;;13.93;52.87;98783.13;5055410;28;20039;-68
2023/04/03 07:13:12;;;;;;;0.20;0.20;;;;;;;14.03;52.92;98773.03;5055236;28;20388;-66
2023/04/03 07:15:42;;;;;;;0.20;0.20;;;;;;;14.13;52.63;98774.91;5055866;28;20466;-69
2023/04/03 07:18:10;;;;;;;0.20;0.20;;;;;;;14.11;52.43;98775.31;5054587;28;20033;-69
2023/04/03 07:20:40;;;;;;;0.20;0.20;;;;;;;14.13;52.46;98775.69;5055172;28;20028;-67
2023/04/03 07:23:07;;;;;;;0.20;0.20;;;;;;;14.19;52.77;98778.00;5055408;28;20460;-66
2023/04/03 07:25:36;;;;;;;0.20;0.20;;;;;;;14.27;51.90;98776.69;5056263;28;20118;-68
2023/04/03 07:28:04;;;;;;;0.20;0.20;;;;;;;14.39;51.65;98790.09;5054919;28;20037;-69
2023/04/03 07:30:32;;;;;;;0.20;0.20;;;;;;;14.43;52.06;98793.63;5055543;28;20025;-68
2023/04/03 07:32:58;;;;;;;0.20;0.20;;;;;;;14.46;51.91;98787.19;5056399;28;20033;-67
2023/04/03 07:35:30;;;;;;;0.20;0.20;;;;;;;14.45;51.99;98785.63;5054835;28;20067;-69
2023/04/03 07:37:56;;;;;;;0.20;0.20;;;;;;;14.39;51.75;98796.50;5054705;28;20124;-69
2023/04/03 07:40:21;;;;;;;0.20;0.20;;;;;;;14.42;51.57;98783.66;5054742;28;20060;-66
2023/04/03 07:42:47;;;;;;;0.20;0.20;;;;;;;14.51;51.71;98809.13;5054643;28;20036;-67
2023/04/03 07:45:17;;;;;;;0.20;0.20;;;;;;;14.42;50.84;98795.63;5054686;28;20052;-68
2023/04/03 07:47:42;;;;;;;0.20;0.20;;;;;;;14.39;51.11;98798.50;5054911;28;20150;-66
2023/04/03 07:50:11;;;;;;;0.20;0.20;;;;;;;14.42;50.88;98797.63;5054341;28;20041;-67
2023/04/03 07:52:37;;;;;;;0.20;0.20;;;;;;;14.42;50.53;98800.44;5054528;28;20033;-67
2023/04/03 07:55:03;;;;;;;0.20;0.20;;;;;;;14.38;50.76;98796.91;5055015;28;20032;-69
2023/04/03 07:57:31;;;;;;;0.30;0.30;;;;;;;14.45;50.72;98807.22;5055018;28;20037;-68
2023/04/03 08:00:04;;;;;;;0.20;0.20;;;;;;;14.46;50.90;98812.38;5054521;28;20036;-69
2023/04/03 08:02:33;;;;;;;0.20;0.20;;;;;;;14.43;50.57;98804.81;5054346;28;20460;-67
2023/04/03 08:05:04;;;;;;;0.20;0.20;;;;;;;14.43;50.21;98804.81;5054306;28;20112;-66
2023/04/03 08:07:30;;;;;;;0.20;0.20;;;;;;;14.50;49.93;98815.94;5054413;28;20043;-66
2023/04/03 08:09:55;;;;;;;0.20;0.20;;;;;;;14.41;50.44;98812.84;5053980;28;20143;-71
2023/04/03 08:12:24;;;;;;;0.20;0.20;;;;;;;14.41;50.47;98813.63;5054331;28;20036;-66
2023/04/03 08:14:52;;;;;;;0.20;0.20;;;;;;;14.43;50.76;98821.59;5054187;28;20035;-64
2023/04/03 08:17:21;;;;;;;0.20;0.20;;;;;;;14.34;51.13;98815.75;5054011;28;20032;-66
2023/04/03 08:19:49;;;;;;;0.20;0.20;;;;;;;14.39;51.21;98807.69;5054022;28;20025;-66
2023/04/03 08:22:18;;;;;;;0.20;0.20;;;;;;;14.52;50.84;98813.50;5054209;28;20025;-66
2023/04/03 08:24:44;;;;;;;0.20;0.20;;;;;;;14.53;51.08;98798.31;5054300;28;20106;-64
2023/04/03 08:27:17;;;;;;;0.20;0.20;;;;;;;14.43;50.88;98807.63;5053807;28;20547;-66
2023/04/03 08:29:45;;;;;;;0.20;0.20;;;;;;;14.51;50.83;98813.94;5053726;28;20427;-67
2023/04/03 08:32:14;;;;;;;0.20;0.20;;;;;;;14.52;50.83;98807.91;5053686;28;20471;-63
2023/04/03 08:34:45;;;;;;;0.20;0.20;;;;;;;14.61;50.54;98824.97;5053296;28;20487;-64
2023/04/03 08:37:15;;;;;;;0.22;0.22;;;;;;;14.46;51.13;98803.19;5053608;28;20057;-63
2023/04/03 08:39:45;;;;;;;0.20;0.20;;;;;;;14.36;51.24;98810.53;5053477;28;20032;-64
2023/04/03 08:42:30;;;;;;;0.20;0.20;;;;;;;14.35;51.96;98817.34;5053787;28;20079;-63
2023/04/03 08:45:12;;;;;;;0.20;0.20;;;;;;;14.43;52.19;98827.19;5053481;28;20052;-67
2023/04/03 08:48:07;;;;;;;0.20;0.20;;;;;;;14.53;52.28;98803.91;5053682;28;20549;-63
2023/04/03 08:50:52;;;;;;;0.20;0.20;;;;;;;14.32;52.25;98787.41;5054756;28;20029;-67
2023/04/03 08:53:23;;;;;;;0.20;0.20;;;;;;;14.48;52.08;98798.78;5053124;28;20031;-67
2023/04/03 08:55:53;;;;;;;0.20;0.20;;;;;;;14.55;52.26;98807.09;5053482;28;20029;-66
2023/04/03 08:58:28;;;;;;;0.20;0.20;;;;;;;14.51;52.02;98785.97;5053368;28;20053;-64
2023/04/03 09:01:00;;;;;;;0.20;0.20;;;;;;;14.53;52.53;98803.91;5053612;28;20029;-70
2023/04/03 09:03:41;;;;;;;0.20;0.20;;;;;;;14.68;52.12;98810.88;5053434;28;20135;-67
2023/04/03 09:06:17;;;;;;;0.20;0.20;;;;;;;14.78;51.23;98813.94;5053650;28;20063;-65
2023/04/03 09:09:06;;;;;;;0.20;0.20;;;;;;;14.69;51.58;98811.66;5053084;28;20044;-65
2023/04/03 09:11:48;;;;;;;0.20;0.20;;;;;;;14.65;51.35;98800.53;5053969;28;20035;-64
2023/04/03 09:14:34;;;;;;;0.20;0.20;;;;;;;14.68;50.87;98810.88;5053300;28;20036;-64
2023/04/03 09:17:10;;;;;;;0.20;0.20;;;;;;;14.87;50.91;98800.19;5053077;28;20079;-66
2023/04/03 09:19:47;;;;;;;0.20;0.20;;;;;;;15.00;50.05;98792.75;5053089;28;20036;-66
2023/04/03 09:22:21;;;;;;;0.20;0.20;;;;;;;14.91;50.38;98792.50;5054501;28;20074;-64
2023/04/03 09:24:56;;;;;;;0.20;0.20;;;;;;;14.89;50.97;98789.34;5052916;28;20150;-71
2023/04/03 09:27:25;;;;;;;0.20;0.20;;;;;;;14.78;50.62;98797.91;5054184;28;20040;-68
2023/04/03 09:29:54;;;;;;;0.20;0.20;;;;;;;14.75;50.35;98793.16;5052934;28;20116;-65
2023/04/03 09:32:30;;;;;;;0.20;0.20;;;;;;;14.70;51.03;98795.66;5052916;28;20047;-65
2023/04/03 09:35:03;;;;;;;0.20;0.20;;;;;;;14.58;50.70;98785.84;5052850;28;20032;-67
2023/04/03 09:37:44;;;;;;;0.20;0.20;;;;;;;14.72;50.25;98816.41;5052635;28;20060;-66
2023/04/03 09:40:24;;;;;;;0.20;0.20;;;;;;;14.36;50.77;98771.34;5052700;28;20044;-65
2023/04/03 09:42:53;;;;;;;0.20;0.20;;;;;;;14.58;50.08;98797.81;5052264;28;20061;-65
2023/04/03 09:45:27;;;;;;;0.20;0.20;;;;;;;14.80;49.73;98798.28;5052508;28;20083;-63
2023/04/03 09:48:11;;;;;;;0.20;0.20;;;;;;;14.87;49.32;98817.78;5052898;28;20044;-65
2023/04/03 09:51:04;;;;;;;0.20;0.20;;;;;;;14.72;49.73;98813.63;5052448;28;20025;-66
2023/04/03 09:53:40;;;;;;;0.20;0.20;;;;;;;14.72;49.63;98788.41;5052385;28;20072;-64
2023/04/03 09:56:15;;;;;;;0.20;0.20;;;;;;;14.82;49.15;98800.66;5053422;28;20032;-67
2023/04/03 09:58:48;;;;;;;0.20;0.20;;;;;;;14.89;49.30;98795.72;5052327;28;20025;-65
2023/04/03 10:01:30;;;;;;;0.20;0.20;;;;;;;14.48;50.91;98807.16;5052402;28;20021;-66
2023/04/03 10:04:10;;;;;;;0.20;0.20;;;;;;;14.53;51.17;98803.91;5052349;28;20025;-67
2023/04/03 10:06:40;;;;;;;0.20;0.20;;;;;;;14.59;50.77;98819.00;5052451;28;20029;-64
2023/04/03 10:09:29;;;;;;;0.22;0.22;;;;;;;14.58;50.25;98797.81;5078030;28;20044;-64
2023/04/03 10:12:12;;;;;;;0.20;0.20;;;;;;;14.63;50.55;98794.53;5075734;28;20386;-66
2023/04/03 10:15:00;;;;;;;0.20;0.20;;;;;;;14.43;50.33;98788.03;5076078;28;20459;-63
2023/04/03 10:17:48;;;;;;;0.20;0.20;;;;;;;14.64;50.32;98801.72;5076148;28;20051;-64
2023/04/03 10:20:32;;;;;;;0.20;0.20;;;;;;;14.93;49.85;98792.88;5075928;28;20467;-66
2023/04/03 10:23:17;;;;;;;0.25;0.25;;;;;;;14.98;49.64;98781.19;5075822;28;20028;-65
2023/04/03 10:25:43;;;;;;;0.22;0.22;;;;;;;15.04;49.88;98773.88;5093233;28;20042;-65
2023/04/03 10:28:19;;;;;;;0.20;0.20;;;;;;;15.10;49.23;98791.78;5076226;28;20518;-64
2023/04/03 10:31:06;;;;;;;0.20;0.20;;;;;;;14.94;49.12;98772.84;5075403;28;20032;-64
2023/04/03 10:33:47;;;;;;;0.30;0.30;;;;;;;15.26;48.56;98779.09;5075510;28;20024;-64
2023/04/03 10:36:27;;;;;;;0.20;0.20;;;;;;;15.24;48.31;98764.75;5075718;28;20056;-66
2023/04/03 10:39:20;;;;;;;0.20;0.20;;;;;;;15.17;48.49;98780.44;5075355;28;20036;-65
2023/04/03 10:42:02;;;;;;;0.22;0.22;;;;;;;15.30;48.51;98774.22;5076220;28;20123;-64
2023/04/03 10:44:36;;;;;;;0.20;0.20;;;;;;;15.18;49.06;98787.63;5075397;28;20025;-66
2023/04/03 10:47:07;;;;;;;0.20;0.20;;;;;;;15.06;48.91;98776.25;5075376;28;20032;-64
2023/04/03 10:49:51;;;;;;;0.20;0.20;;;;;;;15.12;48.62;98782.94;5092195;28;20024;-65
2023/04/03 10:53:06;;;;;;;0.20;0.20;;;;;;;15.29;48.09;98783.84;5075332;28;20032;-65
2023/04/03 10:55:47;;;;;;;0.20;0.20;;;;;;;15.30;47.62;98793.84;5068635;28;20024;-67
2023/04/03 10:58:28;;;;;;;0.20;0.20;;;;;;;15.15;47.12;98799.69;5078955;28;20031;-65
2023/04/03 11:00:57;;;;;;;0.20;0.20;;;;;;;15.53;46.60;98785.38;5078889;28;20475;-67
2023/04/03 11:03:36;;;;;;;0.20;0.20;;;;;;;15.62;46.58;98793.22;5078727;28;20029;-65
2023/04/03 11:06:10;;;;;;;0.20;0.20;;;;;;;15.70;46.28;98789.88;5078944;28;20482;-65
2023/04/03 11:08:46;;;;;;;0.20;0.20;;;;;;;15.77;46.26;98779.75;5078411;28;20172;-65
2023/04/03 11:11:17;;;;;;;0.20;0.20;;;;;;;16.21;45.88;98784.78;5078569;28;20055;-68
2023/04/03 11:13:58;;;;;;;0.20;0.20;;;;;;;16.04;44.94;98785.97;5096768;28;20383;-68
2023/04/03 11:16:28;;;;;;;0.20;0.20;;;;;;;16.17;45.11;98784.06;5078453;28;20024;-67
2023/04/03 11:18:59;;;;;;;0.20;0.20;;;;;;;15.59;45.54;98803.28;5078485;28;20458;-65
2023/04/03 11:21:52;;;;;;;0.20;0.20;;;;;;;15.95;45.05;98791.38;5078339;28;20093;-67
2023/04/03 11:24:27;;;;;;;0.20;0.20;;;;;;;15.97;45.02;98769.28;5095858;28;20449;-66
2023/04/03 11:27:01;;;;;;;0.20;0.20;;;;;;;15.83;45.69;98789.25;5078295;28;20032;-64
2023/04/03 11:29:36;;;;;;;0.20;0.20;;;;;;;16.11;44.92;98788.63;5079187;28;20421;-65
2023/04/03 11:32:30;;;;;;;0.20;0.20;;;;;;;16.07;45.29;98779.47;5096948;28;20032;-67
2023/04/03 11:35:05;;;;;;;0.20;0.20;;;;;;;15.83;46.01;98792.03;5096436;28;20024;-66
2023/04/03 11:37:40;;;;;;;0.20;0.20;;;;;;;15.25;46.04;98791.53;5078148;28;20024;-64
2023/04/03 11:40:15;;;;;;;0.20;0.20;;;;;;;15.98;45.61;98784.91;5078177;28;20032;-67
2023/04/03 11:42:46;;;;;;;0.20;0.20;;;;;;;16.35;45.09;98768.84;5078113;28;20116;-68
2023/04/03 11:45:26;;;;;;;0.20;0.20;;;;;;;16.54;44.63;98784.06;5078147;28;20065;-69
2023/04/03 11:47:56;;;;;;;0.20;0.20;;;;;;;16.74;43.65;98785.59;5078189;28;20536;-66
2023/04/03 11:50:35;;;;;;;0.20;0.20;;;;;;;17.37;43.25;98755.50;5078525;28;20032;-66